Time;durP1;ratioP1;P1;durP2;ratioP2;P2;SDS_P1;SDS_P2;PMS_P1;PMS_P2;Temp;Humidity;BMP_temperature;BMP_pressure;BME280_temperature;BME280_humidity;BME280_pressure;Samples;Min_cycle;Max_cycle;Signal;HPM_P1;HPM_P2
2021/12/27 00:02:11;;;;;;;80.83;33.93;;;3.90;99.90;;;;;;5095571;27;39506;-73
2021/12/27 00:04:37;;;;;;;56.37;28.83;;;3.90;99.90;;;;;;5088661;28;39660;-72
2021/12/27 00:07:03;;;;;;;70.80;33.33;;;3.90;99.90;;;;;;5081699;27;36876;-73
2021/12/27 00:09:29;;;;;;;68.03;32.17;;;3.90;99.90;;;;;;5082392;28;39077;-72
2021/12/27 00:11:55;;;;;;;63.07;31.83;;;3.90;99.90;;;;;;5081933;27;39591;-72
2021/12/27 00:14:21;;;;;;;69.33;31.47;;;4.00;99.90;;;;;;5070725;28;38295;-72
2021/12/27 00:16:47;;;;;;;64.77;32.93;;;4.00;99.90;;;;;;5083793;27;38259;-72
2021/12/27 00:19:13;;;;;;;69.23;32.40;;;4.00;99.90;;;;;;5083765;27;39733;-72
2021/12/27 00:21:39;;;;;;;56.47;29.40;;;4.00;99.90;;;;;;5084023;27;39131;-71
2021/12/27 00:24:06;;;;;;;64.73;30.73;;;4.00;99.90;;;;;;5076521;27;39609;-72
2021/12/27 00:26:32;;;;;;;52.67;27.80;;;4.00;99.90;;;;;;5086037;28;37568;-73
2021/12/27 00:28:58;;;;;;;104.83;38.40;;;4.00;99.90;;;;;;5089696;28;40308;-73
2021/12/27 00:31:24;;;;;;;63.00;31.20;;;4.00;99.90;;;;;;5085486;27;38626;-73
2021/12/27 00:33:50;;;;;;;67.63;33.47;;;4.00;99.90;;;;;;5087998;27;38031;-73
2021/12/27 00:36:16;;;;;;;64.87;31.47;;;4.00;99.90;;;;;;5083259;27;37062;-72
2021/12/27 00:38:42;;;;;;;50.03;27.97;;;4.10;99.90;;;;;;5084683;28;39658;-72
2021/12/27 00:41:08;;;;;;;56.17;31.50;;;4.10;99.90;;;;;;5086025;27;38198;-72
2021/12/27 00:43:34;;;;;;;63.13;32.97;;;4.10;99.90;;;;;;5086638;27;38811;-73
2021/12/27 00:46:01;;;;;;;64.27;33.17;;;4.10;99.90;;;;;;5074109;28;36068;-73
2021/12/27 00:48:27;;;;;;;56.90;31.03;;;4.10;99.90;;;;;;5068625;28;47657;-72
2021/12/27 00:50:53;;;;;;;42.23;25.40;;;4.20;99.90;;;;;;5093862;27;39418;-72
2021/12/27 00:53:19;;;;;;;40.63;25.10;;;4.10;99.90;;;;;;5077365;27;39992;-72
2021/12/27 00:55:45;;;;;;;43.47;25.80;;;4.10;99.90;;;;;;5078212;27;37637;-72
2021/12/27 00:58:11;;;;;;;43.70;25.67;;;4.20;99.90;;;;;;5080344;27;38394;-72
2021/12/27 01:00:37;;;;;;;39.47;25.43;;;4.20;99.90;;;;;;5077898;27;39905;-72
2021/12/27 01:03:03;;;;;;;47.43;28.60;;;4.20;99.90;;;;;;5084368;27;38220;-75
2021/12/27 01:05:30;;;;;;;34.17;23.33;;;4.30;99.90;;;;;;5088991;28;37426;-72
2021/12/27 01:07:56;;;;;;;41.23;26.37;;;4.30;99.90;;;;;;5083889;28;39220;-72
2021/12/27 01:10:50;;;;;;;58.23;30.83;;;4.30;99.90;;;;;;5080178;27;38225;-72
2021/12/27 01:15:49;;;;;;;36.00;22.70;;;4.40;99.90;;;;;;5094865;27;37788;-73
2021/12/27 01:18:17;;;;;;;40.17;25.13;;;4.30;99.90;;;;;;5083959;27;38772;-73
2021/12/27 01:20:44;;;;;;;35.87;24.17;;;4.40;99.90;;;;;;5071465;28;39145;-72
2021/12/27 01:23:10;;;;;;;34.23;23.33;;;4.40;99.90;;;;;;5079632;27;38273;-73
2021/12/27 01:25:36;;;;;;;29.33;21.30;;;4.40;99.90;;;;;;5081625;27;37358;-72
2021/12/27 01:28:04;;;;;;;38.67;24.70;;;4.40;99.90;;;;;;5081605;28;39156;-73
2021/12/27 01:30:36;;;;;;;38.73;22.80;;;4.40;99.90;;;;;;5075522;27;39402;-72
2021/12/27 01:33:05;;;;;;;40.00;24.70;;;4.50;99.90;;;;;;5076821;28;39927;-73
2021/12/27 01:35:33;;;;;;;53.83;27.40;;;4.50;99.90;;;;;;5076387;27;37918;-73
2021/12/27 01:37:59;;;;;;;48.83;27.47;;;4.40;99.90;;;;;;5080484;27;39316;-72
2021/12/27 01:40:27;;;;;;;43.73;25.90;;;4.50;99.90;;;;;;5091818;27;40921;-73
2021/12/27 01:43:05;;;;;;;47.07;25.00;;;4.50;99.90;;;;;;5075073;27;38725;-72
2021/12/27 01:45:33;;;;;;;41.73;23.50;;;4.50;99.90;;;;;;5068966;28;47132;-72
2021/12/27 01:47:59;;;;;;;38.53;25.10;;;4.50;99.90;;;;;;5080355;27;38743;-72
2021/12/27 01:50:25;;;;;;;43.67;26.30;;;4.50;99.90;;;;;;5071792;27;37821;-72
2021/12/27 01:52:51;;;;;;;40.83;24.83;;;4.50;99.90;;;;;;5088034;27;37776;-73
2021/12/27 01:55:18;;;;;;;40.53;24.23;;;4.50;99.90;;;;;;5076293;27;38309;-73
2021/12/27 01:57:44;;;;;;;48.90;25.43;;;4.60;99.90;;;;;;5084850;27;38662;-73
2021/12/27 02:00:11;;;;;;;36.73;23.37;;;4.60;99.90;;;;;;5078232;27;39990;-73
2021/12/27 02:02:37;;;;;;;43.30;24.27;;;4.60;99.90;;;;;;5083666;27;37463;-72
2021/12/27 02:05:03;;;;;;;67.70;30.87;;;4.60;99.90;;;;;;5084586;27;37964;-70
2021/12/27 02:07:29;;;;;;;85.63;34.93;;;4.60;99.90;;;;;;5077297;28;40657;-73
2021/12/27 02:10:02;;;;;;;42.07;26.60;;;4.70;99.90;;;;;;5078125;27;38767;-73
2021/12/27 02:12:29;;;;;;;;;;;4.70;99.90;;;;;;5103047;27;47754;-73
2021/12/27 02:14:55;;;;;;;67.20;31.37;;;4.70;99.90;;;;;;5085409;27;36623;-73
2021/12/27 02:17:22;;;;;;;63.20;29.47;;;4.70;99.90;;;;;;5078118;27;38535;-73
2021/12/27 02:19:49;;;;;;;56.53;29.40;;;4.70;99.90;;;;;;5080102;27;39340;-73
2021/12/27 02:22:16;;;;;;;58.47;29.00;;;4.70;99.90;;;;;;5077460;27;37616;-71
2021/12/27 02:24:42;;;;;;;42.83;26.37;;;4.70;99.90;;;;;;5074038;27;38076;-73
2021/12/27 02:27:12;;;;;;;61.70;30.90;;;4.70;99.90;;;;;;5086589;27;38504;-74
2021/12/27 02:29:38;;;;;;;52.70;29.77;;;4.70;99.90;;;;;;5079379;27;38218;-72
2021/12/27 02:32:06;;;;;;;42.37;25.70;;;4.70;99.90;;;;;;5078330;27;37750;-73
2021/12/27 02:34:32;;;;;;;61.77;30.90;;;4.70;99.90;;;;;;5081106;28;37083;-73
2021/12/27 02:36:59;;;;;;;61.30;32.00;;;4.80;99.90;;;;;;5081178;27;37559;-72
2021/12/27 02:39:26;;;;;;;66.50;32.77;;;4.80;99.90;;;;;;5085337;27;38145;-72
2021/12/27 02:41:52;;;;;;;46.90;28.87;;;4.80;99.90;;;;;;5087161;27;38342;-72
2021/12/27 02:44:18;;;;;;;48.40;28.87;;;4.90;99.90;;;;;;5075119;27;37991;-71
2021/12/27 02:46:44;;;;;;;54.07;30.83;;;4.90;99.90;;;;;;5089150;27;37613;-71
2021/12/27 02:49:10;;;;;;;44.03;28.27;;;4.90;99.90;;;;;;5086699;27;38825;-72
2021/12/27 02:51:37;;;;;;;46.57;28.73;;;4.90;99.90;;;;;;5073738;27;37861;-72
2021/12/27 02:54:03;;;;;;;67.97;30.07;;;4.90;99.90;;;;;;5078852;27;37019;-71
2021/12/27 02:56:30;;;;;;;46.30;28.23;;;4.90;99.90;;;;;;5080976;28;39099;-72
2021/12/27 02:58:57;;;;;;;73.87;31.67;;;4.90;99.90;;;;;;5077317;28;38082;-72
2021/12/27 03:01:24;;;;;;;51.10;28.77;;;5.00;99.90;;;;;;5081928;27;37987;-71
2021/12/27 03:03:52;;;;;;;64.57;32.97;;;5.00;99.90;;;;;;5080927;27;37227;-72
2021/12/27 03:06:18;;;;;;;68.17;33.00;;;5.00;99.90;;;;;;5083593;27;40895;-72
2021/12/27 03:08:46;;;;;;;42.00;27.07;;;5.10;99.90;;;;;;5073230;28;37272;-72
2021/12/27 03:11:12;;;;;;;41.93;28.10;;;5.00;99.90;;;;;;5077872;27;37164;-71
2021/12/27 03:13:44;;;;;;;68.13;30.37;;;5.10;99.90;;;;;;5086806;27;37770;-72
2021/12/27 03:16:15;;;;;;;50.85;28.65;;;5.00;99.90;;;;;;5079302;27;37745;-72
2021/12/27 03:18:43;;;;;;;107.70;38.73;;;5.00;99.90;;;;;;5077525;28;37765;-71
2021/12/27 03:21:10;;;;;;;101.77;35.80;;;5.00;99.90;;;;;;5080748;27;37027;-72
2021/12/27 03:23:37;;;;;;;41.30;26.47;;;5.00;99.90;;;;;;5086378;27;37493;-71
2021/12/27 03:26:04;;;;;;;55.07;31.83;;;5.10;99.90;;;;;;5083938;27;38687;-72
2021/12/27 03:28:31;;;;;;;56.03;29.40;;;5.00;99.90;;;;;;5083889;27;36871;-72
2021/12/27 03:30:57;;;;;;;58.97;31.43;;;5.00;99.90;;;;;;5098519;27;36878;-72
2021/12/27 03:33:24;;;;;;;38.40;26.57;;;5.00;99.90;;;;;;5087416;27;37366;-72
2021/12/27 03:36:00;;;;;;;41.00;26.57;;;5.10;99.90;;;;;;5098821;27;38444;-73
2021/12/27 03:38:33;;;;;;;44.90;27.70;;;5.10;99.90;;;;;;5086144;27;38585;-72
2021/12/27 03:40:59;;;;;;;;;;;5.10;99.90;;;;;;5084330;27;37611;-72
2021/12/27 03:43:25;;;;;;;45.43;28.07;;;5.10;99.90;;;;;;5083212;27;37382;-71
2021/12/27 03:45:52;;;;;;;41.10;24.90;;;5.10;99.90;;;;;;5084366;27;39547;-71
2021/12/27 03:48:18;;;;;;;90.57;34.43;;;5.10;99.90;;;;;;5085330;27;37298;-73
2021/12/27 03:50:44;;;;;;;51.40;27.67;;;5.10;99.90;;;;;;5087166;27;37183;-71
2021/12/27 03:53:10;;;;;;;36.77;26.10;;;5.20;99.90;;;;;;5080247;27;37411;-72
2021/12/27 03:55:36;;;;;;;45.10;27.27;;;5.20;99.90;;;;;;5075320;27;38305;-72
2021/12/27 03:58:09;;;;;;;38.80;27.23;;;5.20;99.90;;;;;;5083866;27;38204;-71
2021/12/27 04:01:00;;;;;;;39.60;27.07;;;5.20;99.90;;;;;;5079203;28;47021;-71
2021/12/27 04:03:27;;;;;;;61.37;31.27;;;5.20;99.90;;;;;;5085213;28;39857;-72
2021/12/27 04:05:53;;;;;;;64.97;30.63;;;5.30;99.90;;;;;;5079942;27;39506;-72
2021/12/27 04:08:21;;;;;;;48.53;25.30;;;5.30;99.90;;;;;;5082447;27;37028;-72
2021/12/27 04:10:47;;;;;;;55.63;30.60;;;5.30;99.90;;;;;;5081443;28;38733;-71
2021/12/27 04:13:18;;;;;;;58.30;28.20;;;5.30;99.90;;;;;;5086634;27;37870;-73
2021/12/27 04:15:44;;;;;;;43.07;27.43;;;5.40;99.90;;;;;;5084248;27;40523;-71
2021/12/27 04:18:14;;;;;;;47.40;30.00;;;5.40;99.90;;;;;;5080217;28;39335;-72
2021/12/27 04:20:40;;;;;;;63.97;29.33;;;5.40;99.90;;;;;;5089517;27;38923;-71
2021/12/27 04:23:07;;;;;;;46.30;27.90;;;5.40;99.90;;;;;;5085428;27;38354;-75
2021/12/27 04:25:33;;;;;;;38.73;25.80;;;5.50;99.90;;;;;;5078235;27;39900;-72
2021/12/27 04:27:59;;;;;;;75.20;31.33;;;5.50;99.90;;;;;;5087254;27;39998;-71
2021/12/27 04:30:26;;;;;;;34.90;25.30;;;5.50;99.90;;;;;;5091917;27;38917;-72
2021/12/27 04:32:52;;;;;;;49.13;30.57;;;5.50;99.90;;;;;;5077553;27;37541;-72
2021/12/27 04:35:20;;;;;;;81.03;31.00;;;5.50;99.90;;;;;;5085588;27;39627;-72
2021/12/27 04:37:47;;;;;;;37.50;25.70;;;5.50;99.90;;;;;;5087349;28;39872;-72
2021/12/27 04:40:14;;;;;;;63.83;30.90;;;5.50;99.90;;;;;;5082439;28;36736;-72
2021/12/27 04:42:44;;;;;;;39.13;27.00;;;5.50;99.90;;;;;;5076744;28;38130;-72
2021/12/27 04:45:14;;;;;;;50.23;27.17;;;5.60;99.90;;;;;;5082126;27;39459;-72
2021/12/27 04:47:42;;;;;;;45.60;27.60;;;5.60;99.90;;;;;;5081409;27;38472;-72
2021/12/27 04:50:08;;;;;;;58.50;29.40;;;5.60;99.90;;;;;;5081629;27;38560;-72
2021/12/27 04:52:34;;;;;;;46.07;28.47;;;5.60;99.90;;;;;;5082352;28;38763;-71
2021/12/27 04:55:01;;;;;;;116.50;35.13;;;5.50;99.90;;;;;;5077240;27;38092;-72
2021/12/27 04:57:28;;;;;;;56.60;29.00;;;5.50;99.90;;;;;;5068805;28;46939;-72
2021/12/27 04:59:54;;;;;;;62.20;28.83;;;5.60;99.90;;;;;;5081657;27;39029;-72
2021/12/27 05:02:20;;;;;;;75.10;32.93;;;5.60;99.90;;;;;;5080876;27;38700;-71
2021/12/27 05:04:46;;;;;;;45.47;27.63;;;5.60;99.90;;;;;;5085966;28;39896;-71
2021/12/27 05:07:12;;;;;;;49.20;28.80;;;5.60;99.90;;;;;;5077745;27;38964;-72
2021/12/27 05:09:39;;;;;;;78.53;30.27;;;5.60;99.90;;;;;;5076607;28;38187;-71
2021/12/27 05:12:06;;;;;;;72.17;31.43;;;5.70;99.90;;;;;;5078837;27;37407;-72
2021/12/27 05:14:32;;;;;;;108.73;34.53;;;5.70;99.90;;;;;;5088545;27;37932;-71
2021/12/27 05:16:58;;;;;;;57.13;30.13;;;5.70;99.90;;;;;;5082338;27;37594;-72
2021/12/27 05:19:24;;;;;;;75.53;33.43;;;5.70;99.90;;;;;;5080341;27;38422;-73
2021/12/27 05:21:50;;;;;;;60.93;29.60;;;5.70;99.90;;;;;;5075809;27;34026;-71
2021/12/27 05:24:18;;;;;;;94.30;36.17;;;5.80;99.90;;;;;;5082028;27;38683;-71
2021/12/27 05:26:44;;;;;;;59.37;32.40;;;5.80;99.90;;;;;;5089831;27;37438;-72
2021/12/27 05:29:10;;;;;;;75.73;31.70;;;5.90;99.90;;;;;;5085543;27;37704;-71
2021/12/27 05:31:37;;;;;;;108.70;34.07;;;5.90;99.90;;;;;;5074832;28;36137;-71
2021/12/27 05:34:03;;;;;;;61.63;31.00;;;5.90;99.90;;;;;;5077584;27;38506;-72
2021/12/27 05:36:29;;;;;;;91.57;34.47;;;6.00;99.90;;;;;;5084493;28;38914;-71
2021/12/27 05:38:56;;;;;;;159.80;40.73;;;6.10;99.90;;;;;;5078599;28;38518;-71
2021/12/27 05:41:22;;;;;;;89.20;34.23;;;6.20;99.90;;;;;;5079723;27;37653;-72
2021/12/27 05:43:48;;;;;;;116.13;37.63;;;6.20;99.90;;;;;;5083546;28;39491;-71
2021/12/27 05:46:14;;;;;;;106.57;38.20;;;6.20;99.90;;;;;;5088504;27;38279;-71
2021/12/27 05:48:40;;;;;;;148.83;42.53;;;6.20;99.90;;;;;;5081019;27;37946;-71
2021/12/27 05:51:06;;;;;;;106.60;37.63;;;6.20;99.90;;;;;;5074970;27;39150;-72
2021/12/27 05:53:32;;;;;;;58.50;31.90;;;6.30;99.90;;;;;;5076443;27;37696;-71
2021/12/27 05:55:59;;;;;;;101.20;37.97;;;6.30;99.90;;;;;;5081092;27;38024;-72
2021/12/27 05:58:25;;;;;;;58.07;29.50;;;6.30;99.90;;;;;;5076761;27;38060;-72
2021/12/27 06:00:52;;;;;;;90.67;35.30;;;6.30;99.90;;;;;;5080445;27;35137;-71
2021/12/27 06:03:18;;;;;;;93.27;32.77;;;6.30;99.90;;;;;;5072966;28;38649;-72
2021/12/27 06:05:46;;;;;;;77.37;33.80;;;6.30;99.90;;;;;;5084836;27;38219;-72
2021/12/27 06:08:12;;;;;;;115.50;39.17;;;6.30;99.90;;;;;;5077211;27;39112;-72
2021/12/27 06:10:38;;;;;;;82.00;33.33;;;6.30;99.90;;;;;;5079525;27;37506;-71
2021/12/27 06:13:04;;;;;;;144.77;42.57;;;6.30;99.90;;;;;;5090159;27;39536;-71
2021/12/27 06:15:30;;;;;;;89.07;35.43;;;6.30;99.90;;;;;;5086806;27;39042;-71
2021/12/27 06:17:57;;;;;;;142.07;39.57;;;6.40;99.90;;;;;;5069243;28;39169;-71
2021/12/27 06:20:23;;;;;;;104.50;39.07;;;6.40;99.90;;;;;;5078413;27;37498;-71
2021/12/27 06:22:54;;;;;;;81.20;35.37;;;6.50;99.90;;;;;;5076117;27;39021;-70
2021/12/27 06:25:20;;;;;;;104.60;38.97;;;6.50;99.90;;;;;;5085126;27;39142;-71
2021/12/27 06:27:46;;;;;;;75.63;33.87;;;6.50;99.90;;;;;;5093068;27;38842;-71
2021/12/27 06:30:14;;;;;;;95.53;37.77;;;6.50;99.90;;;;;;5079610;27;36762;-71
2021/12/27 06:32:41;;;;;;;68.27;34.37;;;6.60;99.90;;;;;;5082679;28;43141;-70
2021/12/27 06:35:11;;;;;;;71.00;32.50;;;6.70;99.90;;;;;;5071972;27;40238;-73
2021/12/27 06:37:42;;;;;;;96.23;36.03;;;6.70;99.90;;;;;;5072108;28;38698;-72
2021/12/27 06:40:10;;;;;;;172.20;41.90;;;6.70;99.90;;;;;;5093533;27;36584;-72
2021/12/27 06:42:36;;;;;;;67.43;33.70;;;6.80;99.90;;;;;;5080701;28;40801;-71
2021/12/27 06:45:03;;;;;;;161.57;43.13;;;6.80;99.90;;;;;;5077235;27;38938;-72
2021/12/27 06:47:29;;;;;;;182.43;43.13;;;6.90;99.90;;;;;;5086153;27;48736;-71
2021/12/27 06:49:56;;;;;;;173.17;42.13;;;6.90;99.90;;;;;;5083314;27;37518;-72
2021/12/27 06:52:23;;;;;;;58.00;31.13;;;7.00;99.90;;;;;;5077566;27;39379;-71
2021/12/27 06:54:49;;;;;;;66.73;33.47;;;6.90;99.90;;;;;;5082723;27;38469;-71
2021/12/27 06:57:18;;;;;;;81.30;35.00;;;6.90;99.90;;;;;;5083116;27;38020;-71
2021/12/27 06:59:45;;;;;;;90.53;34.50;;;6.80;99.90;;;;;;5071370;28;37864;-71
2021/12/27 07:02:11;;;;;;;57.90;32.03;;;6.80;99.90;;;;;;5086426;27;39920;-71
2021/12/27 07:04:38;;;;;;;72.57;35.17;;;6.80;99.90;;;;;;5084387;28;39124;-72
2021/12/27 07:07:04;;;;;;;50.23;30.63;;;6.80;99.90;;;;;;5076441;27;38456;-71
2021/12/27 07:09:30;;;;;;;58.57;31.63;;;6.80;99.90;;;;;;5082523;27;37309;-72
2021/12/27 07:11:56;;;;;;;73.30;32.57;;;6.80;99.90;;;;;;5078338;27;39055;-70
2021/12/27 07:14:23;;;;;;;65.93;32.40;;;6.70;99.90;;;;;;5094173;27;39759;-71
2021/12/27 07:16:49;;;;;;;61.17;29.57;;;6.70;99.90;;;;;;5097682;27;38884;-71
2021/12/27 07:19:15;;;;;;;111.57;34.07;;;6.70;99.90;;;;;;5092592;27;38046;-72
2021/12/27 07:21:41;;;;;;;58.73;28.17;;;6.70;99.90;;;;;;5087945;27;38996;-72
2021/12/27 07:24:07;;;;;;;97.80;35.37;;;6.70;99.90;;;;;;5098152;27;37999;-72
2021/12/27 07:26:34;;;;;;;73.30;32.27;;;6.70;99.90;;;;;;5072363;27;37836;-72
2021/12/27 07:29:00;;;;;;;112.73;35.10;;;6.70;99.90;;;;;;5108313;27;37237;-71
2021/12/27 07:31:26;;;;;;;55.37;29.87;;;6.80;99.90;;;;;;5089714;27;38658;-73
2021/12/27 07:33:52;;;;;;;143.83;33.87;;;6.80;99.90;;;;;;5104711;27;39400;-70
2021/12/27 07:36:18;;;;;;;52.87;27.77;;;6.80;99.90;;;;;;5082159;27;37821;-72
2021/12/27 07:38:45;;;;;;;52.93;26.17;;;6.80;99.90;;;;;;5081887;27;38091;-70
2021/12/27 07:41:11;;;;;;;164.13;36.37;;;6.90;99.90;;;;;;5080780;27;38665;-71
2021/12/27 07:43:37;;;;;;;77.00;31.23;;;6.90;99.90;;;;;;5085988;28;38518;-71
2021/12/27 07:46:03;;;;;;;171.90;39.13;;;6.90;99.90;;;;;;5087900;27;38832;-70
2021/12/27 07:48:30;;;;;;;147.60;35.20;;;6.90;99.90;;;;;;5088305;27;38355;-72
2021/12/27 07:50:56;;;;;;;50.67;26.80;;;6.90;99.90;;;;;;5089282;27;39777;-71
2021/12/27 07:53:22;;;;;;;139.43;33.80;;;6.90;99.90;;;;;;5090400;27;40212;-71
2021/12/27 07:55:49;;;;;;;60.67;27.93;;;6.90;99.90;;;;;;5083675;27;39193;-70
2021/12/27 07:58:15;;;;;;;59.37;28.23;;;7.00;99.90;;;;;;5086303;27;37388;-71
2021/12/27 08:00:41;;;;;;;157.70;36.90;;;7.00;99.90;;;;;;5093111;27;40025;-71
2021/12/27 08:03:07;;;;;;;155.23;36.53;;;7.00;99.90;;;;;;5074721;27;39751;-71
2021/12/27 08:05:33;;;;;;;71.73;28.63;;;7.00;99.90;;;;;;5095292;27;38156;-72
2021/12/27 08:08:00;;;;;;;189.63;36.63;;;7.00;99.90;;;;;;5079220;28;38237;-71
2021/12/27 08:10:28;;;;;;;301.83;42.33;;;7.10;99.90;;;;;;5088702;27;38927;-71
2021/12/27 08:12:55;;;;;;;245.90;37.03;;;7.10;99.90;;;;;;5093523;27;38247;-71
2021/12/27 08:15:21;;;;;;;66.43;31.53;;;7.10;99.90;;;;;;5073483;28;38911;-71
2021/12/27 08:17:48;;;;;;;230.57;36.07;;;7.20;99.90;;;;;;5073752;28;37712;-71
2021/12/27 08:20:14;;;;;;;123.57;31.90;;;7.20;99.90;;;;;;5086953;27;39616;-71
2021/12/27 08:22:40;;;;;;;81.17;30.60;;;7.20;99.90;;;;;;5091690;27;38482;-71
2021/12/27 08:25:07;;;;;;;106.40;29.70;;;7.20;99.90;;;;;;5091472;27;38233;-72
2021/12/27 08:27:36;;;;;;;268.00;39.83;;;7.30;99.90;;;;;;5097296;27;37588;-71
2021/12/27 08:30:05;;;;;;;73.77;29.47;;;7.30;99.90;;;;;;5096709;27;39035;-72
2021/12/27 08:32:32;;;;;;;160.23;35.40;;;7.30;99.90;;;;;;5100234;27;38816;-72
2021/12/27 08:35:01;;;;;;;81.43;30.00;;;7.40;99.90;;;;;;5088703;27;38895;-71
2021/12/27 08:37:29;;;;;;;125.47;35.97;;;7.40;99.90;;;;;;5084531;27;49066;-71
2021/12/27 08:39:55;;;;;;;83.50;30.80;;;7.60;99.90;;;;;;5081974;28;40621;-71
2021/12/27 08:42:22;;;;;;;97.23;34.70;;;7.60;99.90;;;;;;5082470;27;38036;-72
2021/12/27 08:44:48;;;;;;;106.37;35.13;;;7.60;99.90;;;;;;5085178;27;38299;-72
2021/12/27 08:47:15;;;;;;;80.23;32.40;;;7.60;99.90;;;;;;5086347;27;37087;-71
2021/12/27 08:49:42;;;;;;;106.77;35.93;;;7.70;99.90;;;;;;5085522;28;40906;-70
2021/12/27 08:52:08;;;;;;;84.80;32.13;;;7.60;99.90;;;;;;5077043;27;38627;-70
2021/12/27 08:54:34;;;;;;;74.33;32.50;;;7.60;99.90;;;;;;5084852;27;39036;-71
2021/12/27 08:57:03;;;;;;;96.20;33.53;;;7.70;99.90;;;;;;5083916;27;37913;-71
2021/12/27 08:59:29;;;;;;;103.23;34.63;;;7.70;99.90;;;;;;5079636;27;48933;-71
2021/12/27 09:01:55;;;;;;;88.70;35.00;;;7.80;99.90;;;;;;5083838;27;38205;-73
2021/12/27 09:04:23;;;;;;;75.07;30.90;;;7.80;99.90;;;;;;5086655;27;38047;-70
2021/12/27 09:06:50;;;;;;;103.00;33.90;;;7.80;99.90;;;;;;5082557;27;38086;-70
2021/12/27 09:09:17;;;;;;;106.20;33.63;;;7.80;99.90;;;;;;5084179;27;38844;-72
2021/12/27 09:11:44;;;;;;;90.63;32.47;;;7.80;99.90;;;;;;5098389;27;40209;-71
2021/12/27 09:14:10;;;;;;;74.97;30.53;;;7.70;99.90;;;;;;5081331;27;39204;-72
2021/12/27 09:16:36;;;;;;;76.80;33.63;;;7.70;99.90;;;;;;5084799;27;37514;-71
2021/12/27 09:19:02;;;;;;;106.70;33.93;;;7.70;99.90;;;;;;5078983;27;40405;-72
2021/12/27 09:21:28;;;;;;;88.13;31.23;;;7.70;99.90;;;;;;5081975;27;37142;-71
2021/12/27 09:23:54;;;;;;;74.40;31.67;;;7.80;99.90;;;;;;5074425;27;41543;-71
2021/12/27 09:26:20;;;;;;;68.83;30.67;;;7.80;99.90;;;;;;5078593;27;39355;-71
2021/12/27 09:28:47;;;;;;;107.13;32.50;;;7.80;99.90;;;;;;5083117;28;39755;-70
2021/12/27 09:31:13;;;;;;;69.57;30.37;;;7.80;99.90;;;;;;5099188;27;39897;-70
2021/12/27 09:33:39;;;;;;;98.83;33.07;;;7.80;99.90;;;;;;5083471;28;38415;-69
2021/12/27 09:36:05;;;;;;;62.57;31.37;;;7.90;99.90;;;;;;5087599;27;37962;-71
2021/12/27 09:38:31;;;;;;;71.37;29.90;;;7.90;99.90;;;;;;5085035;27;38792;-71
2021/12/27 09:40:57;;;;;;;67.37;28.50;;;7.90;99.90;;;;;;5082205;27;38429;-71
2021/12/27 09:43:24;;;;;;;56.03;28.67;;;7.80;99.90;;;;;;5092814;27;39125;-70
2021/12/27 09:45:50;;;;;;;86.03;32.77;;;7.80;99.90;;;;;;5096529;27;38105;-71
2021/12/27 09:48:16;;;;;;;74.73;31.57;;;7.90;99.90;;;;;;5083596;27;38637;-71
2021/12/27 09:50:50;;;;;;;64.33;29.90;;;8.00;99.90;;;;;;5091071;27;38985;-71
2021/12/27 09:53:16;;;;;;;74.07;29.40;;;8.00;99.90;;;;;;5100942;27;40031;-71
2021/12/27 09:55:42;;;;;;;60.97;29.27;;;8.00;99.90;;;;;;5097879;27;38479;-70
2021/12/27 09:58:08;;;;;;;59.97;27.40;;;7.90;99.90;;;;;;5082892;27;38857;-70
2021/12/27 10:00:34;;;;;;;76.13;29.70;;;8.00;99.90;;;;;;5079209;27;38458;-70
2021/12/27 10:03:00;;;;;;;80.00;31.07;;;8.00;99.90;;;;;;5103628;27;38154;-71
2021/12/27 10:05:29;;;;;;;83.80;32.93;;;8.10;99.90;;;;;;5088154;27;38538;-71
2021/12/27 10:07:55;;;;;;;61.13;28.13;;;8.10;99.90;;;;;;5080640;28;38981;-71
2021/12/27 10:10:22;;;;;;;77.47;31.90;;;8.20;99.90;;;;;;5094104;27;39086;-71
2021/12/27 10:12:50;;;;;;;57.20;28.77;;;8.10;99.90;;;;;;5086754;28;39801;-70
2021/12/27 10:15:19;;;;;;;57.20;26.80;;;8.20;99.90;;;;;;5076203;27;39514;-71
2021/12/27 10:17:46;;;;;;;53.50;26.37;;;8.30;99.90;;;;;;5106840;27;39281;-71
2021/12/27 10:20:19;;;;;;;52.23;24.90;;;8.20;99.90;;;;;;5087017;27;38152;-71
2021/12/27 10:22:48;;;;;;;55.37;25.63;;;8.20;99.90;;;;;;5076787;27;38174;-70
2021/12/27 10:25:21;;;;;;;49.60;22.97;;;8.20;99.90;;;;;;5081865;27;37960;-71
2021/12/27 10:27:49;;;;;;;48.27;23.27;;;8.20;99.90;;;;;;5083924;27;38502;-71
2021/12/27 10:30:19;;;;;;;48.30;22.60;;;8.30;99.90;;;;;;5086685;27;38429;-70
2021/12/27 10:33:13;;;;;;;49.43;25.73;;;8.30;99.90;;;;;;5087574;28;39033;-71
2021/12/27 10:35:45;;;;;;;52.20;24.23;;;8.30;99.90;;;;;;5087333;27;47406;-70
2021/12/27 10:38:41;;;;;;;44.75;22.92;;;8.30;99.90;;;;;;5083870;27;38797;-71
2021/12/27 10:41:10;;;;;;;45.43;22.73;;;8.30;99.90;;;;;;5080710;27;38603;-72
2021/12/27 10:43:46;;;;;;;50.87;23.23;;;8.30;99.90;;;;;;5083783;27;37965;-71
2021/12/27 10:46:19;;;;;;;53.10;25.27;;;8.30;99.90;;;;;;5088226;27;39205;-71
2021/12/27 10:48:59;;;;;;;48.30;24.43;;;8.40;99.90;;;;;;5083009;27;39567;-71
2021/12/27 10:51:27;;;;;;;43.53;24.30;;;8.50;99.90;;;;;;5090553;27;38737;-71
2021/12/27 10:53:59;;;;;;;51.50;25.63;;;8.60;99.90;;;;;;5088858;27;38205;-71
2021/12/27 10:56:27;;;;;;;41.80;23.73;;;8.70;99.90;;;;;;5089091;27;36930;-71
2021/12/27 10:58:59;;;;;;;46.30;24.97;;;8.70;99.90;;;;;;5089689;27;38244;-71
2021/12/27 11:01:27;;;;;;;42.03;22.57;;;8.70;99.90;;;;;;5081460;27;39244;-71
2021/12/27 11:03:58;;;;;;;40.33;21.27;;;8.70;99.90;;;;;;5093246;28;37438;-70
2021/12/27 11:06:27;;;;;;;33.43;20.50;;;8.80;99.90;;;;;;5088266;27;38965;-70
2021/12/27 11:08:54;;;;;;;44.10;22.83;;;8.80;99.90;;;;;;5086842;28;39035;-71
2021/12/27 11:11:23;;;;;;;34.27;21.67;;;8.80;99.90;;;;;;5090871;27;39125;-72
2021/12/27 11:13:51;;;;;;;40.77;21.93;;;8.80;99.90;;;;;;5090447;27;37768;-70
2021/12/27 11:16:17;;;;;;;36.07;21.87;;;8.70;99.90;;;;;;5090867;27;38021;-71
2021/12/27 11:18:44;;;;;;;39.43;21.17;;;8.70;99.90;;;;;;5094997;27;38797;-72
2021/12/27 11:21:19;;;;;;;38.07;21.17;;;8.80;99.90;;;;;;5085576;27;38854;-71
2021/12/27 11:23:50;;;;;;;37.50;20.63;;;8.80;99.90;;;;;;5085669;27;38695;-71
2021/12/27 11:26:23;;;;;;;40.83;21.80;;;8.70;99.90;;;;;;5085692;27;37687;-71
2021/12/27 11:28:49;;;;;;;39.67;21.67;;;8.80;99.90;;;;;;5083105;27;40472;-71
2021/12/27 11:31:15;;;;;;;37.60;20.07;;;8.80;99.90;;;;;;5084241;28;39680;-72
2021/12/27 11:34:04;;;;;;;36.63;21.43;;;8.80;99.90;;;;;;5084884;27;37855;-71
2021/12/27 11:36:36;;;;;;;34.90;19.33;;;8.80;99.90;;;;;;5084886;27;48739;-71
2021/12/27 11:39:23;;;;;;;36.50;19.70;;;8.90;99.90;;;;;;5093053;27;37765;-71
2021/12/27 11:41:58;;;;;;;36.97;19.77;;;9.00;99.90;;;;;;5088781;27;39151;-71
2021/12/27 11:44:38;;;;;;;34.77;19.33;;;9.10;99.90;;;;;;5100474;27;38188;-71
2021/12/27 11:47:06;;;;;;;39.77;21.33;;;9.20;99.90;;;;;;5086636;27;37462;-71
2021/12/27 11:49:50;;;;;;;32.90;20.77;;;9.30;99.90;;;;;;5093343;28;39353;-71
2021/12/27 11:52:17;;;;;;;45.77;23.47;;;9.40;99.90;;;;;;5089187;27;39257;-71
2021/12/27 11:54:58;;;;;;;36.77;20.63;;;9.30;99.90;;;;;;5087269;27;39482;-71
2021/12/27 11:57:42;;;;;;;40.97;22.30;;;9.30;99.90;;;;;;5101315;27;37559;-71
2021/12/27 12:00:18;;;;;;;44.07;22.23;;;9.20;99.90;;;;;;5089626;27;38884;-70
2021/12/27 12:02:51;;;;;;;49.80;25.23;;;9.30;99.90;;;;;;5095063;27;38650;-71
2021/12/27 12:05:43;;;;;;;48.27;24.67;;;9.20;99.90;;;;;;5079153;28;39029;-70
2021/12/27 12:08:19;;;;;;;46.67;25.37;;;9.30;99.90;;;;;;5094429;27;38232;-71
2021/12/27 12:10:55;;;;;;;49.60;24.70;;;9.30;99.90;;;;;;5102694;27;38032;-71
2021/12/27 12:13:37;;;;;;;47.50;24.53;;;9.50;99.90;;;;;;5088586;27;37682;-71
2021/12/27 12:16:14;;;;;;;41.10;24.37;;;9.50;99.90;;;;;;5089956;27;40787;-73
2021/12/27 12:18:44;;;;;;;40.60;23.23;;;9.60;99.90;;;;;;5083746;27;38422;-70
2021/12/27 12:21:29;;;;;;;42.40;23.77;;;9.60;99.90;;;;;;5088954;27;40600;-71
2021/12/27 12:23:59;;;;;;;38.87;23.23;;;9.50;99.90;;;;;;5084958;27;39129;-71
2021/12/27 12:26:25;;;;;;;49.83;25.90;;;9.50;99.90;;;;;;5089996;27;38392;-72
2021/12/27 12:28:59;;;;;;;36.77;24.43;;;9.60;99.90;;;;;;5085018;28;38191;-72
2021/12/27 12:31:31;;;;;;;43.07;25.03;;;9.50;99.90;;;;;;5084317;27;39558;-70
2021/12/27 12:34:11;;;;;;;40.35;24.33;;;9.60;99.90;;;;;;5093440;27;37169;-71
2021/12/27 12:37:00;;;;;;;41.73;24.37;;;9.50;99.90;;;;;;5085229;27;47349;-71
2021/12/27 12:39:37;;;;;;;35.47;23.43;;;9.50;99.90;;;;;;5085152;27;40688;-71
2021/12/27 12:42:07;;;;;;;36.83;21.93;;;9.50;99.90;;;;;;5083058;27;40003;-70
2021/12/27 12:44:33;;;;;;;43.10;25.27;;;9.40;99.90;;;;;;5082623;28;38763;-71